Welcome to the Virtual Washington ARTCC
Home of the first flight and the oldest continuously operating airport in the world, the airspace controlled by the Washington ARTCC is rich in history. With three major airports within 30 miles of the nation's capital, ZDC controllers handle some of the most complex airspace in the country.

From the Carolinas up to New Jersey, including the busy arrival streams from the southeast into the three New York airports and Philadelphia, overflights to and from Boston, and the equally busy traffic flows to Atlanta, there is always something interesting going on at the Washington ARTCC.
Rick Rump
Air Traffic Manager
ZDC Top Controllers
Top Controllers for April 2016:
Pham, Gia - 32.6
Sarchiapone, Josh - 30.87
Last, Rohan - 20.88
Rump, Rick - 13.24
King, Brad - 12.3
Member of

Current Conditions & Major Field Configuration
AirportWindKnotsOPERATIONSMETAR
KBWI300328(D) 33L(A) 33R(A/D)-PROPS KBWI 300754Z 30003KT 10SM BKN022 19/18 A3000 RMK AO2 RAB15E25 SLP158 P0000 T01940183 $
KDCA330319 (D/A) 15 (D/A)-RJ/PROPS KDCA 300837Z 33003KT 10SM SCT024 BKN090 21/18 A3001 RMK AO2 T02060183
KIAD000030 (D) 19L/19C/19R (A) KIAD 300752Z 00000KT 10SM BKN035 BKN060 OVC080 19/17 A3002 RMK AO2 SLP163 T01940172
KRDU03055L/5R (D/A) KRDU 300751Z 03005KT 1/2SM BR OVC003 19/18 A3000 RMK AO2 SFC VIS 5 SLP154 T01890183 $


Controllers Online
No ZDC Controllers Online
Current ZDC Activity

Name:Callsign:Aircraft:Departing:Arriving:
Aundrey Sanchez KSANAAL2704A319KDTWKDCA
Ray Smith EGNXAUA93B77WLOWWKIAD
No information available